sensor_id;sensor_type;location;lat;lon;timestamp;P1;durP1;ratioP1;P2;durP2;ratioP2
23388;SDS011;11867;51.198;11.966;2022-10-31T00:01:10;10.13;;;5.65;;
23388;SDS011;11867;51.198;11.966;2022-10-31T00:06:15;9.23;;;5.85;;
23388;SDS011;11867;51.198;11.966;2022-10-31T00:11:19;11.23;;;5.22;;
23388;SDS011;11867;51.198;11.966;2022-10-31T00:16:22;9.65;;;5.70;;
23388;SDS011;11867;51.198;11.966;2022-10-31T00:21:28;7.70;;;5.07;;
23388;SDS011;11867;51.198;11.966;2022-10-31T00:26:31;10.23;;;4.97;;
23388;SDS011;11867;51.198;11.966;2022-10-31T00:31:34;10.35;;;5.95;;
23388;SDS011;11867;51.198;11.966;2022-10-31T00:36:38;8.10;;;5.10;;
23388;SDS011;11867;51.198;11.966;2022-10-31T00:41:41;10.18;;;5.00;;
23388;SDS011;11867;51.198;11.966;2022-10-31T00:46:44;14.10;;;5.65;;
23388;SDS011;11867;51.198;11.966;2022-10-31T00:51:48;10.90;;;5.90;;
23388;SDS011;11867;51.198;11.966;2022-10-31T00:56:50;10.35;;;6.03;;
23388;SDS011;11867;51.198;11.966;2022-10-31T01:01:53;11.52;;;5.65;;
23388;SDS011;11867;51.198;11.966;2022-10-31T01:06:57;10.90;;;5.88;;
23388;SDS011;11867;51.198;11.966;2022-10-31T01:12:00;15.40;;;5.88;;
23388;SDS011;11867;51.198;11.966;2022-10-31T01:17:02;8.35;;;5.85;;
23388;SDS011;11867;51.198;11.966;2022-10-31T01:22:06;11.23;;;5.38;;
23388;SDS011;11867;51.198;11.966;2022-10-31T01:27:09;12.68;;;5.47;;
23388;SDS011;11867;51.198;11.966;2022-10-31T01:32:11;10.55;;;5.20;;
23388;SDS011;11867;51.198;11.966;2022-10-31T01:37:15;9.00;;;5.97;;
23388;SDS011;11867;51.198;11.966;2022-10-31T01:42:19;12.52;;;6.13;;
23388;SDS011;11867;51.198;11.966;2022-10-31T01:47:33;9.05;;;5.85;;
23388;SDS011;11867;51.198;11.966;2022-10-31T01:52:43;12.80;;;5.85;;
23388;SDS011;11867;51.198;11.966;2022-10-31T01:57:48;12.32;;;6.07;;
23388;SDS011;11867;51.198;11.966;2022-10-31T02:02:55;17.67;;;5.95;;
23388;SDS011;11867;51.198;11.966;2022-10-31T02:08:01;9.10;;;6.03;;
23388;SDS011;11867;51.198;11.966;2022-10-31T02:13:07;9.90;;;5.60;;
23388;SDS011;11867;51.198;11.966;2022-10-31T02:18:11;10.80;;;5.68;;
23388;SDS011;11867;51.198;11.966;2022-10-31T02:23:20;16.65;;;6.93;;
23388;SDS011;11867;51.198;11.966;2022-10-31T02:29:00;12.75;;;5.00;;
23388;SDS011;11867;51.198;11.966;2022-10-31T02:34:16;9.57;;;5.28;;
23388;SDS011;11867;51.198;11.966;2022-10-31T02:39:23;11.35;;;5.43;;
23388;SDS011;11867;51.198;11.966;2022-10-31T02:44:29;8.27;;;5.10;;
23388;SDS011;11867;51.198;11.966;2022-10-31T02:49:40;10.40;;;5.22;;
23388;SDS011;11867;51.198;11.966;2022-10-31T02:54:48;8.35;;;5.10;;
23388;SDS011;11867;51.198;11.966;2022-10-31T02:59:52;10.18;;;5.47;;
23388;SDS011;11867;51.198;11.966;2022-10-31T03:05:11;12.93;;;5.55;;
23388;SDS011;11867;51.198;11.966;2022-10-31T03:10:20;13.48;;;6.03;;
23388;SDS011;11867;51.198;11.966;2022-10-31T03:15:34;12.35;;;5.95;;
23388;SDS011;11867;51.198;11.966;2022-10-31T03:20:41;9.68;;;5.63;;
23388;SDS011;11867;51.198;11.966;2022-10-31T03:25:47;7.22;;;5.65;;
23388;SDS011;11867;51.198;11.966;2022-10-31T03:30:51;9.00;;;5.47;;
23388;SDS011;11867;51.198;11.966;2022-10-31T03:35:57;10.23;;;5.75;;
23388;SDS011;11867;51.198;11.966;2022-10-31T03:41:03;12.32;;;6.60;;
23388;SDS011;11867;51.198;11.966;2022-10-31T03:46:08;13.75;;;6.70;;
23388;SDS011;11867;51.198;11.966;2022-10-31T03:51:13;10.38;;;5.72;;
23388;SDS011;11867;51.198;11.966;2022-10-31T03:56:22;9.75;;;5.30;;
23388;SDS011;11867;51.198;11.966;2022-10-31T04:01:30;10.35;;;5.65;;
23388;SDS011;11867;51.198;11.966;2022-10-31T04:06:38;9.95;;;6.70;;
23388;SDS011;11867;51.198;11.966;2022-10-31T04:11:44;12.60;;;6.22;;
23388;SDS011;11867;51.198;11.966;2022-10-31T04:16:51;9.02;;;5.75;;
23388;SDS011;11867;51.198;11.966;2022-10-31T04:21:55;14.20;;;6.68;;
23388;SDS011;11867;51.198;11.966;2022-10-31T04:26:57;8.13;;;5.60;;
23388;SDS011;11867;51.198;11.966;2022-10-31T04:32:00;10.15;;;6.05;;
23388;SDS011;11867;51.198;11.966;2022-10-31T04:37:04;13.90;;;6.15;;
23388;SDS011;11867;51.198;11.966;2022-10-31T04:42:07;8.80;;;6.60;;
23388;SDS011;11867;51.198;11.966;2022-10-31T04:47:09;9.07;;;5.90;;
23388;SDS011;11867;51.198;11.966;2022-10-31T04:52:13;8.80;;;5.97;;
23388;SDS011;11867;51.198;11.966;2022-10-31T04:57:16;7.95;;;4.45;;
23388;SDS011;11867;51.198;11.966;2022-10-31T05:02:18;11.50;;;6.22;;
23388;SDS011;11867;51.198;11.966;2022-10-31T05:07:23;11.77;;;6.13;;
23388;SDS011;11867;51.198;11.966;2022-10-31T05:12:25;11.35;;;7.22;;
23388;SDS011;11867;51.198;11.966;2022-10-31T05:17:28;7.50;;;5.32;;
23388;SDS011;11867;51.198;11.966;2022-10-31T05:22:32;10.40;;;6.40;;
23388;SDS011;11867;51.198;11.966;2022-10-31T05:27:35;9.10;;;5.68;;
23388;SDS011;11867;51.198;11.966;2022-10-31T05:32:41;9.32;;;5.25;;
23388;SDS011;11867;51.198;11.966;2022-10-31T05:37:46;11.63;;;6.03;;
23388;SDS011;11867;51.198;11.966;2022-10-31T05:42:50;8.52;;;5.90;;
23388;SDS011;11867;51.198;11.966;2022-10-31T05:47:54;10.50;;;5.57;;
23388;SDS011;11867;51.198;11.966;2022-10-31T05:58:03;10.32;;;5.57;;
23388;SDS011;11867;51.198;11.966;2022-10-31T06:03:07;8.35;;;5.28;;
23388;SDS011;11867;51.198;11.966;2022-10-31T06:08:12;9.43;;;5.82;;
23388;SDS011;11867;51.198;11.966;2022-10-31T06:13:15;12.50;;;5.97;;
23388;SDS011;11867;51.198;11.966;2022-10-31T06:18:18;10.32;;;5.70;;
23388;SDS011;11867;51.198;11.966;2022-10-31T06:23:22;9.02;;;5.60;;
23388;SDS011;11867;51.198;11.966;2022-10-31T06:28:24;10.25;;;6.10;;
23388;SDS011;11867;51.198;11.966;2022-10-31T06:33:27;10.27;;;5.55;;
23388;SDS011;11867;51.198;11.966;2022-10-31T06:38:31;10.30;;;5.97;;
23388;SDS011;11867;51.198;11.966;2022-10-31T06:43:34;8.15;;;5.70;;
23388;SDS011;11867;51.198;11.966;2022-10-31T06:48:37;11.02;;;5.50;;
23388;SDS011;11867;51.198;11.966;2022-10-31T06:53:41;11.55;;;5.65;;
23388;SDS011;11867;51.198;11.966;2022-10-31T06:58:43;8.52;;;4.47;;
23388;SDS011;11867;51.198;11.966;2022-10-31T07:03:46;14.43;;;5.75;;
23388;SDS011;11867;51.198;11.966;2022-10-31T07:08:50;12.60;;;5.55;;
23388;SDS011;11867;51.198;11.966;2022-10-31T07:13:53;8.45;;;6.40;;
23388;SDS011;11867;51.198;11.966;2022-10-31T07:18:56;14.80;;;7.40;;
23388;SDS011;11867;51.198;11.966;2022-10-31T07:24:00;13.10;;;7.65;;
23388;SDS011;11867;51.198;11.966;2022-10-31T07:29:03;12.10;;;5.55;;
23388;SDS011;11867;51.198;11.966;2022-10-31T07:34:14;11.75;;;7.30;;
23388;SDS011;11867;51.198;11.966;2022-10-31T07:39:22;18.85;;;8.15;;
23388;SDS011;11867;51.198;11.966;2022-10-31T07:44:26;12.30;;;8.15;;
23388;SDS011;11867;51.198;11.966;2022-10-31T07:49:29;13.40;;;7.25;;
23388;SDS011;11867;51.198;11.966;2022-10-31T07:54:33;14.20;;;7.68;;
23388;SDS011;11867;51.198;11.966;2022-10-31T07:59:36;13.68;;;7.20;;
23388;SDS011;11867;51.198;11.966;2022-10-31T08:04:38;11.25;;;7.65;;
23388;SDS011;11867;51.198;11.966;2022-10-31T08:09:42;13.07;;;7.55;;
23388;SDS011;11867;51.198;11.966;2022-10-31T08:14:45;11.85;;;7.53;;
23388;SDS011;11867;51.198;11.966;2022-10-31T08:19:48;12.40;;;7.70;;
23388;SDS011;11867;51.198;11.966;2022-10-31T08:24:52;11.07;;;7.65;;
23388;SDS011;11867;51.198;11.966;2022-10-31T08:29:55;16.75;;;8.13;;
23388;SDS011;11867;51.198;11.966;2022-10-31T08:34:57;11.52;;;7.60;;
23388;SDS011;11867;51.198;11.966;2022-10-31T08:40:01;12.80;;;8.43;;
23388;SDS011;11867;51.198;11.966;2022-10-31T08:45:05;30.08;;;14.10;;
23388;SDS011;11867;51.198;11.966;2022-10-31T08:50:08;18.40;;;8.50;;
23388;SDS011;11867;51.198;11.966;2022-10-31T08:55:12;15.88;;;8.77;;
23388;SDS011;11867;51.198;11.966;2022-10-31T09:00:15;12.63;;;7.53;;
23388;SDS011;11867;51.198;11.966;2022-10-31T09:05:18;6.88;;;5.43;;
23388;SDS011;11867;51.198;11.966;2022-10-31T09:10:22;14.07;;;7.03;;
23388;SDS011;11867;51.198;11.966;2022-10-31T09:15:26;12.10;;;7.18;;
23388;SDS011;11867;51.198;11.966;2022-10-31T09:20:30;10.65;;;6.65;;
23388;SDS011;11867;51.198;11.966;2022-10-31T09:25:35;10.57;;;6.53;;
23388;SDS011;11867;51.198;11.966;2022-10-31T09:30:38;13.68;;;6.43;;
23388;SDS011;11867;51.198;11.966;2022-10-31T09:35:41;14.43;;;7.50;;
23388;SDS011;11867;51.198;11.966;2022-10-31T09:40:46;14.80;;;9.98;;
23388;SDS011;11867;51.198;11.966;2022-10-31T09:45:53;26.92;;;12.90;;
23388;SDS011;11867;51.198;11.966;2022-10-31T09:51:04;26.42;;;15.82;;
23388;SDS011;11867;51.198;11.966;2022-10-31T09:56:11;25.70;;;14.93;;
23388;SDS011;11867;51.198;11.966;2022-10-31T10:01:23;28.52;;;16.00;;
23388;SDS011;11867;51.198;11.966;2022-10-31T10:06:33;30.05;;;16.27;;
23388;SDS011;11867;51.198;11.966;2022-10-31T10:11:44;26.80;;;15.50;;
23388;SDS011;11867;51.198;11.966;2022-10-31T10:17:00;28.55;;;16.05;;
23388;SDS011;11867;51.198;11.966;2022-10-31T10:22:12;22.98;;;13.73;;
23388;SDS011;11867;51.198;11.966;2022-10-31T10:27:23;24.50;;;14.32;;
23388;SDS011;11867;51.198;11.966;2022-10-31T10:32:31;32.10;;;17.20;;
23388;SDS011;11867;51.198;11.966;2022-10-31T10:37:46;32.50;;;19.50;;
23388;SDS011;11867;51.198;11.966;2022-10-31T10:42:55;33.72;;;19.55;;
23388;SDS011;11867;51.198;11.966;2022-10-31T10:48:36;31.50;;;19.63;;
23388;SDS011;11867;51.198;11.966;2022-10-31T10:53:46;34.85;;;21.35;;
23388;SDS011;11867;51.198;11.966;2022-10-31T10:59:13;35.13;;;22.20;;
23388;SDS011;11867;51.198;11.966;2022-10-31T11:04:24;38.58;;;21.58;;
23388;SDS011;11867;51.198;11.966;2022-10-31T11:09:32;37.17;;;22.50;;
23388;SDS011;11867;51.198;11.966;2022-10-31T11:14:42;38.95;;;23.92;;
23388;SDS011;11867;51.198;11.966;2022-10-31T11:19:47;36.05;;;22.88;;
23388;SDS011;11867;51.198;11.966;2022-10-31T11:24:50;42.58;;;25.92;;
23388;SDS011;11867;51.198;11.966;2022-10-31T11:29:54;34.20;;;22.92;;
23388;SDS011;11867;51.198;11.966;2022-10-31T11:35:09;37.28;;;24.33;;
23388;SDS011;11867;51.198;11.966;2022-10-31T11:40:19;45.35;;;23.02;;
23388;SDS011;11867;51.198;11.966;2022-10-31T11:45:29;37.05;;;25.17;;
23388;SDS011;11867;51.198;11.966;2022-10-31T11:50:35;34.92;;;23.63;;
23388;SDS011;11867;51.198;11.966;2022-10-31T11:55:41;38.28;;;23.52;;
23388;SDS011;11867;51.198;11.966;2022-10-31T12:00:48;44.17;;;25.58;;
23388;SDS011;11867;51.198;11.966;2022-10-31T12:05:53;41.08;;;25.70;;
23388;SDS011;11867;51.198;11.966;2022-10-31T12:11:02;39.17;;;24.80;;
23388;SDS011;11867;51.198;11.966;2022-10-31T12:16:16;49.30;;;25.20;;
23388;SDS011;11867;51.198;11.966;2022-10-31T12:21:39;40.15;;;25.15;;
23388;SDS011;11867;51.198;11.966;2022-10-31T12:26:53;38.05;;;23.73;;
23388;SDS011;11867;51.198;11.966;2022-10-31T12:32:08;40.50;;;23.20;;
23388;SDS011;11867;51.198;11.966;2022-10-31T12:37:30;35.63;;;24.27;;
23388;SDS011;11867;51.198;11.966;2022-10-31T12:42:46;41.20;;;24.75;;
23388;SDS011;11867;51.198;11.966;2022-10-31T12:48:10;35.03;;;22.85;;
23388;SDS011;11867;51.198;11.966;2022-10-31T12:53:33;38.17;;;23.42;;
23388;SDS011;11867;51.198;11.966;2022-10-31T12:58:46;40.17;;;25.00;;
23388;SDS011;11867;51.198;11.966;2022-10-31T13:03:55;41.63;;;23.42;;
23388;SDS011;11867;51.198;11.966;2022-10-31T13:09:05;35.92;;;23.38;;
23388;SDS011;11867;51.198;11.966;2022-10-31T13:14:11;39.05;;;23.45;;
23388;SDS011;11867;51.198;11.966;2022-10-31T13:19:25;44.15;;;23.67;;
23388;SDS011;11867;51.198;11.966;2022-10-31T13:24:33;41.67;;;23.63;;
23388;SDS011;11867;51.198;11.966;2022-10-31T13:29:39;40.33;;;24.85;;
23388;SDS011;11867;51.198;11.966;2022-10-31T13:34:51;41.45;;;23.58;;
23388;SDS011;11867;51.198;11.966;2022-10-31T13:40:04;38.70;;;23.15;;
23388;SDS011;11867;51.198;11.966;2022-10-31T13:45:14;40.70;;;23.13;;
23388;SDS011;11867;51.198;11.966;2022-10-31T13:50:21;35.65;;;23.58;;
23388;SDS011;11867;51.198;11.966;2022-10-31T13:55:34;43.70;;;24.08;;
23388;SDS011;11867;51.198;11.966;2022-10-31T14:00:38;44.53;;;23.75;;
23388;SDS011;11867;51.198;11.966;2022-10-31T14:05:43;49.58;;;25.70;;
23388;SDS011;11867;51.198;11.966;2022-10-31T14:10:55;46.83;;;25.10;;
23388;SDS011;11867;51.198;11.966;2022-10-31T14:16:00;47.03;;;24.10;;
23388;SDS011;11867;51.198;11.966;2022-10-31T14:21:15;42.45;;;24.85;;
23388;SDS011;11867;51.198;11.966;2022-10-31T14:26:31;44.78;;;25.88;;
23388;SDS011;11867;51.198;11.966;2022-10-31T14:31:36;45.53;;;24.27;;
23388;SDS011;11867;51.198;11.966;2022-10-31T14:36:44;43.42;;;23.60;;
23388;SDS011;11867;51.198;11.966;2022-10-31T14:41:59;43.10;;;24.77;;
23388;SDS011;11867;51.198;11.966;2022-10-31T14:47:16;45.38;;;23.75;;
23388;SDS011;11867;51.198;11.966;2022-10-31T14:52:25;48.38;;;25.70;;
23388;SDS011;11867;51.198;11.966;2022-10-31T14:57:30;50.10;;;26.55;;
23388;SDS011;11867;51.198;11.966;2022-10-31T15:02:41;42.28;;;24.50;;
23388;SDS011;11867;51.198;11.966;2022-10-31T15:07:53;41.53;;;24.10;;
23388;SDS011;11867;51.198;11.966;2022-10-31T15:13:08;42.47;;;23.30;;
23388;SDS011;11867;51.198;11.966;2022-10-31T15:18:13;41.35;;;22.80;;
23388;SDS011;11867;51.198;11.966;2022-10-31T15:23:23;48.95;;;24.63;;
23388;SDS011;11867;51.198;11.966;2022-10-31T15:28:28;41.60;;;23.13;;
23388;SDS011;11867;51.198;11.966;2022-10-31T15:33:39;44.20;;;23.30;;
23388;SDS011;11867;51.198;11.966;2022-10-31T15:38:50;40.55;;;22.35;;
23388;SDS011;11867;51.198;11.966;2022-10-31T15:43:52;42.33;;;23.65;;
23388;SDS011;11867;51.198;11.966;2022-10-31T15:48:56;46.25;;;24.02;;
23388;SDS011;11867;51.198;11.966;2022-10-31T15:54:01;43.60;;;24.73;;
23388;SDS011;11867;51.198;11.966;2022-10-31T15:59:04;44.83;;;24.95;;
23388;SDS011;11867;51.198;11.966;2022-10-31T16:04:19;51.47;;;25.73;;
23388;SDS011;11867;51.198;11.966;2022-10-31T16:09:25;42.67;;;25.65;;
23388;SDS011;11867;51.198;11.966;2022-10-31T16:14:38;50.47;;;26.60;;
23388;SDS011;11867;51.198;11.966;2022-10-31T16:19:47;44.92;;;25.08;;
23388;SDS011;11867;51.198;11.966;2022-10-31T16:24:55;46.92;;;25.23;;
23388;SDS011;11867;51.198;11.966;2022-10-31T16:35:32;45.50;;;24.65;;
23388;SDS011;11867;51.198;11.966;2022-10-31T16:40:38;44.55;;;26.23;;
23388;SDS011;11867;51.198;11.966;2022-10-31T16:45:42;46.60;;;26.63;;
23388;SDS011;11867;51.198;11.966;2022-10-31T16:50:46;48.05;;;27.27;;
23388;SDS011;11867;51.198;11.966;2022-10-31T16:55:54;57.67;;;31.20;;
23388;SDS011;11867;51.198;11.966;2022-10-31T17:00:58;53.10;;;31.08;;
23388;SDS011;11867;51.198;11.966;2022-10-31T17:11:07;63.33;;;35.45;;
23388;SDS011;11867;51.198;11.966;2022-10-31T17:16:15;64.65;;;36.58;;
23388;SDS011;11867;51.198;11.966;2022-10-31T17:21:18;66.03;;;33.90;;
23388;SDS011;11867;51.198;11.966;2022-10-31T17:26:25;54.30;;;30.45;;
23388;SDS011;11867;51.198;11.966;2022-10-31T17:36:32;57.65;;;33.03;;
23388;SDS011;11867;51.198;11.966;2022-10-31T17:41:37;63.97;;;34.37;;
23388;SDS011;11867;51.198;11.966;2022-10-31T17:46:39;62.25;;;35.72;;
23388;SDS011;11867;51.198;11.966;2022-10-31T17:51:42;59.38;;;33.88;;
23388;SDS011;11867;51.198;11.966;2022-10-31T17:56:46;59.10;;;33.35;;
23388;SDS011;11867;51.198;11.966;2022-10-31T18:01:48;56.00;;;32.22;;
23388;SDS011;11867;51.198;11.966;2022-10-31T18:06:51;59.25;;;34.55;;
23388;SDS011;11867;51.198;11.966;2022-10-31T18:11:55;58.88;;;32.97;;
23388;SDS011;11867;51.198;11.966;2022-10-31T18:16:58;56.97;;;33.50;;
23388;SDS011;11867;51.198;11.966;2022-10-31T18:22:01;55.55;;;31.67;;
23388;SDS011;11867;51.198;11.966;2022-10-31T18:27:05;55.47;;;29.42;;
23388;SDS011;11867;51.198;11.966;2022-10-31T18:32:08;39.22;;;21.88;;
23388;SDS011;11867;51.198;11.966;2022-10-31T18:37:10;55.72;;;29.35;;
23388;SDS011;11867;51.198;11.966;2022-10-31T18:42:14;51.53;;;29.02;;
23388;SDS011;11867;51.198;11.966;2022-10-31T18:47:20;54.55;;;30.23;;
23388;SDS011;11867;51.198;11.966;2022-10-31T18:52:23;50.47;;;29.67;;
23388;SDS011;11867;51.198;11.966;2022-10-31T18:57:27;54.13;;;29.80;;
23388;SDS011;11867;51.198;11.966;2022-10-31T19:02:30;51.35;;;28.95;;
23388;SDS011;11867;51.198;11.966;2022-10-31T19:07:33;51.58;;;28.63;;
23388;SDS011;11867;51.198;11.966;2022-10-31T19:12:38;54.70;;;29.90;;
23388;SDS011;11867;51.198;11.966;2022-10-31T19:17:40;55.15;;;29.35;;
23388;SDS011;11867;51.198;11.966;2022-10-31T19:22:43;51.70;;;29.50;;
23388;SDS011;11867;51.198;11.966;2022-10-31T19:27:47;49.60;;;28.65;;
23388;SDS011;11867;51.198;11.966;2022-10-31T19:32:52;52.40;;;29.98;;
23388;SDS011;11867;51.198;11.966;2022-10-31T19:37:55;45.65;;;28.00;;
23388;SDS011;11867;51.198;11.966;2022-10-31T19:43:00;55.97;;;30.98;;
23388;SDS011;11867;51.198;11.966;2022-10-31T19:48:03;51.63;;;29.05;;
23388;SDS011;11867;51.198;11.966;2022-10-31T19:53:06;54.85;;;29.50;;
23388;SDS011;11867;51.198;11.966;2022-10-31T19:58:11;51.97;;;29.38;;
23388;SDS011;11867;51.198;11.966;2022-10-31T20:03:14;56.90;;;30.02;;
23388;SDS011;11867;51.198;11.966;2022-10-31T20:08:22;49.25;;;30.90;;
23388;SDS011;11867;51.198;11.966;2022-10-31T20:13:26;53.53;;;30.00;;
23388;SDS011;11867;51.198;11.966;2022-10-31T20:18:30;58.58;;;30.70;;
23388;SDS011;11867;51.198;11.966;2022-10-31T20:23:33;55.25;;;31.77;;
23388;SDS011;11867;51.198;11.966;2022-10-31T20:28:38;52.50;;;30.23;;
23388;SDS011;11867;51.198;11.966;2022-10-31T20:33:43;54.05;;;30.90;;
23388;SDS011;11867;51.198;11.966;2022-10-31T20:38:46;59.72;;;32.47;;
23388;SDS011;11867;51.198;11.966;2022-10-31T20:43:50;82.95;;;36.25;;
23388;SDS011;11867;51.198;11.966;2022-10-31T20:48:53;98.60;;;43.55;;
23388;SDS011;11867;51.198;11.966;2022-10-31T20:53:57;103.97;;;44.88;;
23388;SDS011;11867;51.198;11.966;2022-10-31T21:04:04;102.30;;;43.72;;
23388;SDS011;11867;51.198;11.966;2022-10-31T21:09:09;110.97;;;46.97;;
23388;SDS011;11867;51.198;11.966;2022-10-31T21:14:14;98.25;;;44.80;;
23388;SDS011;11867;51.198;11.966;2022-10-31T21:19:16;82.20;;;34.83;;
23388;SDS011;11867;51.198;11.966;2022-10-31T21:24:19;92.95;;;44.33;;
23388;SDS011;11867;51.198;11.966;2022-10-31T21:29:23;88.18;;;44.17;;
23388;SDS011;11867;51.198;11.966;2022-10-31T21:34:26;86.70;;;43.60;;
23388;SDS011;11867;51.198;11.966;2022-10-31T21:39:29;95.28;;;46.20;;
23388;SDS011;11867;51.198;11.966;2022-10-31T21:44:32;90.88;;;45.00;;
23388;SDS011;11867;51.198;11.966;2022-10-31T21:49:35;85.70;;;44.30;;
23388;SDS011;11867;51.198;11.966;2022-10-31T21:54:38;98.30;;;48.30;;
23388;SDS011;11867;51.198;11.966;2022-10-31T21:59:42;110.20;;;50.75;;
23388;SDS011;11867;51.198;11.966;2022-10-31T22:04:48;104.75;;;48.42;;
23388;SDS011;11867;51.198;11.966;2022-10-31T22:09:51;88.70;;;45.22;;
23388;SDS011;11867;51.198;11.966;2022-10-31T22:14:55;95.43;;;44.97;;
23388;SDS011;11867;51.198;11.966;2022-10-31T22:19:58;95.53;;;45.65;;
23388;SDS011;11867;51.198;11.966;2022-10-31T22:25:00;87.63;;;44.38;;
23388;SDS011;11867;51.198;11.966;2022-10-31T22:30:05;90.95;;;44.35;;
23388;SDS011;11867;51.198;11.966;2022-10-31T22:35:08;99.53;;;44.17;;
23388;SDS011;11867;51.198;11.966;2022-10-31T22:40:11;96.93;;;46.55;;
23388;SDS011;11867;51.198;11.966;2022-10-31T22:45:15;90.68;;;43.92;;
23388;SDS011;11867;51.198;11.966;2022-10-31T22:50:18;87.93;;;42.42;;
23388;SDS011;11867;51.198;11.966;2022-10-31T22:55:20;91.95;;;41.17;;
23388;SDS011;11867;51.198;11.966;2022-10-31T23:00:24;89.88;;;43.70;;
23388;SDS011;11867;51.198;11.966;2022-10-31T23:05:27;83.82;;;41.83;;
23388;SDS011;11867;51.198;11.966;2022-10-31T23:10:30;89.25;;;40.25;;
23388;SDS011;11867;51.198;11.966;2022-10-31T23:15:36;84.30;;;43.13;;
23388;SDS011;11867;51.198;11.966;2022-10-31T23:20:39;86.53;;;43.05;;
23388;SDS011;11867;51.198;11.966;2022-10-31T23:25:42;88.25;;;40.67;;
23388;SDS011;11867;51.198;11.966;2022-10-31T23:31:04;91.50;;;39.03;;
23388;SDS011;11867;51.198;11.966;2022-10-31T23:36:07;65.15;;;38.08;;
23388;SDS011;11867;51.198;11.966;2022-10-31T23:41:10;64.57;;;38.78;;
23388;SDS011;11867;51.198;11.966;2022-10-31T23:46:14;70.15;;;37.65;;
23388;SDS011;11867;51.198;11.966;2022-10-31T23:51:16;83.47;;;38.10;;
23388;SDS011;11867;51.198;11.966;2022-10-31T23:56:19;86.75;;;39.95;;
